createdAt,value
2019-03-29T00:01:49.114Z,91.50
2019-03-29T00:04:19.455Z,91.20
2019-03-29T00:06:49.814Z,91.40
2019-03-29T00:09:20.151Z,91.40
2019-03-29T00:11:50.503Z,91.40
2019-03-29T00:14:23.469Z,91.40
2019-03-29T00:16:52.877Z,91.50
2019-03-29T00:19:23.220Z,91.40
2019-03-29T00:21:53.551Z,91.50
2019-03-29T00:24:23.962Z,91.40
2019-03-29T00:26:54.298Z,91.40
2019-03-29T00:29:24.638Z,91.40
2019-03-29T00:31:55.158Z,91.40
2019-03-29T00:34:25.506Z,91.50
2019-03-29T00:36:55.815Z,91.50
2019-03-29T00:39:26.149Z,91.50
2019-03-29T00:41:56.486Z,91.50
2019-03-29T00:44:26.984Z,91.50
2019-03-29T00:46:57.554Z,91.50
2019-03-29T00:49:27.900Z,91.60
2019-03-29T00:51:59.311Z,91.60
2019-03-29T00:54:30.148Z,91.60
2019-03-29T00:57:00.491Z,91.60
2019-03-29T00:59:30.869Z,91.60
2019-03-29T01:02:01.202Z,91.60
2019-03-29T01:04:31.552Z,91.70
2019-03-29T01:07:01.887Z,91.70
2019-03-29T01:09:32.237Z,91.60
2019-03-29T01:12:02.568Z,91.60
2019-03-29T01:14:32.900Z,91.60
2019-03-29T01:17:03.238Z,92.00
2019-03-29T01:19:33.581Z,91.60
2019-03-29T01:22:03.916Z,91.60
2019-03-29T01:24:34.255Z,91.50
2019-03-29T01:27:04.587Z,91.50
2019-03-29T01:29:34.930Z,91.60
2019-03-29T01:32:05.258Z,91.60
2019-03-29T01:34:35.606Z,91.60
2019-03-29T01:37:05.951Z,91.60
2019-03-29T01:39:36.300Z,91.60
2019-03-29T01:42:06.701Z,91.60
2019-03-29T01:44:37.051Z,91.60
2019-03-29T01:47:07.389Z,91.60
2019-03-29T01:49:37.742Z,91.60
2019-03-29T01:52:08.068Z,91.70
2019-03-29T01:54:38.412Z,92.00
2019-03-29T01:57:08.742Z,91.60
2019-03-29T01:59:39.084Z,91.60
2019-03-29T02:02:09.426Z,91.60
2019-03-29T02:04:39.785Z,91.60
2019-03-29T02:07:10.113Z,91.70
2019-03-29T02:09:40.451Z,91.60
2019-03-29T02:12:10.852Z,91.80
2019-03-29T02:14:41.189Z,91.70
2019-03-29T02:17:12.484Z,91.70
2019-03-29T02:19:42.827Z,91.60
2019-03-29T02:22:13.169Z,91.70
2019-03-29T02:24:43.513Z,91.70
2019-03-29T02:27:14.809Z,91.70
2019-03-29T02:29:45.149Z,91.80
2019-03-29T02:32:15.476Z,91.80
2019-03-29T02:34:45.839Z,91.80
2019-03-29T02:37:16.177Z,91.80
2019-03-29T02:39:46.521Z,91.80
2019-03-29T02:42:16.865Z,91.70
2019-03-29T02:44:47.198Z,91.80
2019-03-29T02:47:17.549Z,91.80
2019-03-29T02:49:47.882Z,91.80
2019-03-29T02:52:18.245Z,91.80
2019-03-29T02:54:48.597Z,91.80
2019-03-29T02:57:18.928Z,91.80
2019-03-29T02:59:49.270Z,91.80
2019-03-29T03:02:19.600Z,91.80
2019-03-29T03:04:49.947Z,91.90
2019-03-29T03:07:20.289Z,91.90
2019-03-29T03:09:50.815Z,91.80
2019-03-29T03:12:21.142Z,91.80
2019-03-29T03:14:51.501Z,91.80
2019-03-29T03:17:21.903Z,91.80
2019-03-29T03:19:52.249Z,91.80
2019-03-29T03:22:22.874Z,91.80
2019-03-29T03:24:53.206Z,91.70
2019-03-29T03:27:23.545Z,91.80
2019-03-29T03:29:53.886Z,91.80
2019-03-29T03:32:24.271Z,92.20
2019-03-29T03:34:54.580Z,91.90
2019-03-29T03:37:25.231Z,91.80
2019-03-29T03:39:55.565Z,91.80
2019-03-29T03:42:25.903Z,91.80
2019-03-29T03:44:56.256Z,91.80
2019-03-29T03:47:26.854Z,91.80
2019-03-29T03:50:00.715Z,91.80
2019-03-29T03:52:29.281Z,91.80
2019-03-29T03:54:59.613Z,91.80
2019-03-29T03:57:30.349Z,91.80
2019-03-29T04:00:02.195Z,91.80
2019-03-29T04:02:32.531Z,91.90
2019-03-29T04:05:02.858Z,91.90
2019-03-29T04:07:33.189Z,91.80
2019-03-29T04:10:04.772Z,91.90
2019-03-29T04:12:35.106Z,91.90
2019-03-29T04:15:06.159Z,91.90
2019-03-29T04:17:36.490Z,91.90
2019-03-29T04:20:07.568Z,91.90
2019-03-29T04:22:37.911Z,92.30
2019-03-29T04:25:20.413Z,91.90
2019-03-29T04:27:50.774Z,91.90
2019-03-29T04:30:21.109Z,91.80
2019-03-29T04:32:51.448Z,91.90
2019-03-29T04:35:21.775Z,91.90
2019-03-29T04:37:52.128Z,91.90
2019-03-29T04:40:22.463Z,91.80
2019-03-29T04:42:52.809Z,91.90
2019-03-29T04:45:23.149Z,91.80
2019-03-29T04:47:53.482Z,91.80
2019-03-29T04:50:23.829Z,91.80
2019-03-29T04:52:54.166Z,92.10
2019-03-29T04:55:24.501Z,91.90
2019-03-29T04:57:54.841Z,91.80
2019-03-29T05:00:25.268Z,91.90
2019-03-29T05:02:55.609Z,91.80
2019-03-29T05:05:25.946Z,91.80
2019-03-29T05:07:56.283Z,91.80
2019-03-29T05:10:26.608Z,91.80
2019-03-29T05:12:59.550Z,91.80
2019-03-29T05:15:31.017Z,91.80
2019-03-29T05:18:02.422Z,91.90
2019-03-29T05:20:32.760Z,91.80
2019-03-29T05:23:03.098Z,91.80
2019-03-29T05:25:33.429Z,91.80
2019-03-29T05:28:03.832Z,91.80
2019-03-29T05:30:34.167Z,91.90
2019-03-29T05:33:04.506Z,91.90
2019-03-29T05:35:34.836Z,91.90
2019-03-29T05:38:05.171Z,91.90
2019-03-29T05:40:35.793Z,91.90
2019-03-29T05:43:06.127Z,91.90
2019-03-29T05:45:36.459Z,91.90
2019-03-29T05:48:06.789Z,91.90
2019-03-29T05:50:37.395Z,91.90
2019-03-29T05:53:07.727Z,92.00
2019-03-29T05:55:38.059Z,92.00
2019-03-29T05:58:08.418Z,92.00
2019-03-29T06:00:38.738Z,92.00
2019-03-29T06:03:10.203Z,92.10
2019-03-29T06:05:40.790Z,92.10
2019-03-29T06:08:11.127Z,92.10
2019-03-29T06:10:48.982Z,92.10
2019-03-29T06:13:13.781Z,92.20
2019-03-29T06:15:44.126Z,92.10
2019-03-29T06:18:14.458Z,92.10
2019-03-29T06:20:44.809Z,92.10
2019-03-29T06:23:15.140Z,92.10
2019-03-29T06:25:45.491Z,92.10
2019-03-29T06:28:15.827Z,92.10
2019-03-29T06:30:48.038Z,92.10
2019-03-29T06:33:19.411Z,92.00
2019-03-29T06:35:53.565Z,92.00
2019-03-29T06:38:26.014Z,92.00
2019-03-29T06:41:02.740Z,92.10
2019-03-29T06:43:28.440Z,92.10
2019-03-29T06:45:58.768Z,92.10
2019-03-29T06:48:29.106Z,92.10
2019-03-29T06:50:59.438Z,92.20
2019-03-29T06:53:29.799Z,91.80
2019-03-29T06:56:00.133Z,91.80
2019-03-29T06:58:30.475Z,91.40
2019-03-29T07:01:00.826Z,91.20
2019-03-29T07:03:31.163Z,90.80
2019-03-29T07:06:01.763Z,90.40
2019-03-29T07:08:32.105Z,89.60
2019-03-29T07:11:16.195Z,88.00
2019-03-29T07:13:34.543Z,85.80
2019-03-29T07:16:04.836Z,83.70
2019-03-29T07:18:35.185Z,83.70
2019-03-29T07:21:05.536Z,83.80
2019-03-29T07:23:37.010Z,81.90
2019-03-29T07:26:07.360Z,80.90
2019-03-29T07:28:37.727Z,79.90
2019-03-29T07:31:08.085Z,79.30
2019-03-29T07:33:38.430Z,78.00
2019-03-29T07:36:08.771Z,76.80
2019-03-29T07:38:39.960Z,75.50
2019-03-29T07:41:10.304Z,74.50
2019-03-29T07:43:40.685Z,74.30
2019-03-29T07:46:11.054Z,72.80
2019-03-29T07:48:41.396Z,71.10
2019-03-29T07:51:11.752Z,70.30
2019-03-29T07:53:44.926Z,70.10
2019-03-29T07:56:15.125Z,68.40
2019-03-29T07:58:45.484Z,66.50
2019-03-29T08:01:15.824Z,66.40
2019-03-29T08:03:46.184Z,66.60
2019-03-29T08:06:16.527Z,65.30
2019-03-29T08:08:46.876Z,65.70
2019-03-29T08:11:25.932Z,66.30
2019-03-29T08:13:49.273Z,66.20
2019-03-29T08:16:19.625Z,65.90
2019-03-29T08:18:49.971Z,66.10
2019-03-29T08:21:20.314Z,66.60
2019-03-29T08:23:50.674Z,66.80
2019-03-29T08:26:21.011Z,68.20
2019-03-29T08:28:51.357Z,67.70
2019-03-29T08:31:21.699Z,67.50
2019-03-29T08:33:52.055Z,65.90
2019-03-29T08:36:22.396Z,66.10
2019-03-29T08:38:52.755Z,65.50
2019-03-29T08:41:23.097Z,62.70
2019-03-29T08:43:53.463Z,62.60
2019-03-29T08:46:23.822Z,61.10
2019-03-29T08:48:54.232Z,59.00
2019-03-29T08:51:24.588Z,59.10
2019-03-29T08:53:54.944Z,58.80
2019-03-29T08:56:25.287Z,56.00
2019-03-29T08:58:55.647Z,57.30
2019-03-29T09:01:26.366Z,56.60
2019-03-29T09:04:05.161Z,56.40
2019-03-29T09:06:30.268Z,56.20
2019-03-29T09:09:01.819Z,52.00
2019-03-29T09:11:33.794Z,54.30
2019-03-29T09:14:04.157Z,53.90
2019-03-29T09:16:34.492Z,54.30
2019-03-29T09:19:04.843Z,52.00
2019-03-29T09:21:35.191Z,50.10
2019-03-29T09:24:05.547Z,51.90
2019-03-29T09:26:35.912Z,49.60
2019-03-29T09:29:06.243Z,50.00
2019-03-29T09:31:36.589Z,49.80
2019-03-29T09:34:06.931Z,48.10
2019-03-29T09:36:37.286Z,48.00
2019-03-29T09:39:08.071Z,48.00
2019-03-29T09:41:38.418Z,47.20
2019-03-29T09:44:08.760Z,47.00
2019-03-29T09:46:41.911Z,45.90
2019-03-29T09:49:12.267Z,44.70
2019-03-29T09:51:42.619Z,45.40
2019-03-29T09:54:12.980Z,44.00
2019-03-29T09:56:43.349Z,45.90
2019-03-29T09:59:16.345Z,45.10
2019-03-29T10:01:45.742Z,44.30
2019-03-29T10:04:16.083Z,45.10
2019-03-29T10:06:46.443Z,43.70
2019-03-29T10:09:16.816Z,42.80
2019-03-29T10:11:47.178Z,42.10
2019-03-29T10:14:17.521Z,42.30
2019-03-29T10:16:47.877Z,43.90
2019-03-29T10:19:18.219Z,43.00
2019-03-29T10:21:48.570Z,42.90
2019-03-29T10:24:18.911Z,42.70
2019-03-29T10:26:49.253Z,42.70
2019-03-29T10:29:19.603Z,42.50
2019-03-29T10:31:49.958Z,40.90
2019-03-29T10:34:20.320Z,40.70
2019-03-29T10:36:50.673Z,40.90
2019-03-29T10:39:21.017Z,40.90
2019-03-29T10:41:51.370Z,41.10
2019-03-29T10:44:21.719Z,41.50
2019-03-29T10:46:52.061Z,40.60
2019-03-29T10:49:22.404Z,39.50
2019-03-29T10:51:52.758Z,41.30
2019-03-29T10:54:23.170Z,39.70
2019-03-29T10:56:53.614Z,39.30
2019-03-29T10:59:27.833Z,40.30
2019-03-29T11:01:56.963Z,40.20
2019-03-29T11:04:27.310Z,40.90
2019-03-29T11:06:57.661Z,40.70
2019-03-29T11:09:29.160Z,40.10
2019-03-29T11:11:59.504Z,39.60
2019-03-29T11:14:29.857Z,39.00
2019-03-29T11:17:01.005Z,39.40
2019-03-29T11:19:31.448Z,39.70
2019-03-29T11:22:01.803Z,39.20
2019-03-29T11:24:32.239Z,39.00
2019-03-29T11:27:02.658Z,39.30
2019-03-29T11:29:33.018Z,39.40
2019-03-29T11:32:04.412Z,37.90
2019-03-29T11:34:34.752Z,39.20
2019-03-29T11:37:05.108Z,38.30
2019-03-29T11:39:35.458Z,39.00
2019-03-29T11:42:05.808Z,38.80
2019-03-29T11:44:36.157Z,38.80
2019-03-29T11:47:06.583Z,39.00
2019-03-29T11:49:36.929Z,38.80
2019-03-29T11:52:08.265Z,38.60
2019-03-29T11:54:38.615Z,39.60
2019-03-29T11:57:08.981Z,39.20
2019-03-29T11:59:40.287Z,39.60
2019-03-29T12:02:10.858Z,39.40
2019-03-29T12:04:41.206Z,40.00
2019-03-29T12:07:12.042Z,39.90
2019-03-29T12:09:42.392Z,39.80
2019-03-29T12:12:12.755Z,40.00
2019-03-29T12:14:43.106Z,40.30
2019-03-29T12:17:13.523Z,40.00
2019-03-29T12:19:43.902Z,40.50
2019-03-29T12:22:14.245Z,40.40
2019-03-29T12:24:44.596Z,40.90
2019-03-29T12:27:16.019Z,41.40
2019-03-29T12:29:46.367Z,41.40
2019-03-29T12:32:16.777Z,41.70
2019-03-29T12:34:47.112Z,41.80
2019-03-29T12:37:17.477Z,41.90
2019-03-29T12:39:47.823Z,42.10
2019-03-29T12:42:18.176Z,42.40
2019-03-29T12:44:48.524Z,43.10
2019-03-29T12:47:18.875Z,42.70
2019-03-29T12:49:49.214Z,43.80
2019-03-29T12:52:19.569Z,44.20
2019-03-29T12:54:49.922Z,44.30
2019-03-29T12:57:20.271Z,44.30
2019-03-29T12:59:50.619Z,44.20
2019-03-29T13:02:20.964Z,44.80
2019-03-29T13:04:51.325Z,45.00
2019-03-29T13:07:21.675Z,45.00
2019-03-29T13:09:52.033Z,45.00
2019-03-29T13:12:22.378Z,45.10
2019-03-29T13:14:52.734Z,45.00
2019-03-29T13:17:23.083Z,45.80
2019-03-29T13:19:53.432Z,45.80
2019-03-29T13:22:23.850Z,46.00
2019-03-29T13:24:54.194Z,46.00
2019-03-29T13:27:24.544Z,46.00
2019-03-29T13:29:54.893Z,45.90
2019-03-29T13:32:25.235Z,46.20
2019-03-29T13:34:55.582Z,46.10
2019-03-29T13:37:25.923Z,46.50
2019-03-29T13:39:56.280Z,46.60
2019-03-29T13:42:26.631Z,46.90
2019-03-29T13:44:56.986Z,47.20
2019-03-29T13:47:27.330Z,47.20
2019-03-29T13:49:57.705Z,47.10
2019-03-29T13:52:31.101Z,48.30
2019-03-29T13:55:00.345Z,47.60
2019-03-29T13:57:30.752Z,47.70
2019-03-29T14:00:01.115Z,47.80
2019-03-29T14:02:31.444Z,47.60
2019-03-29T14:05:01.805Z,47.80
2019-03-29T14:07:32.150Z,47.80
2019-03-29T14:10:02.505Z,47.50
2019-03-29T14:12:32.846Z,48.10
2019-03-29T14:15:03.200Z,48.00
2019-03-29T14:17:35.213Z,48.00
2019-03-29T14:20:06.563Z,48.00
2019-03-29T14:22:37.882Z,47.90
2019-03-29T14:25:08.833Z,47.90
2019-03-29T14:27:39.186Z,47.90
2019-03-29T14:30:10.244Z,48.20
2019-03-29T14:32:40.586Z,48.20
2019-03-29T14:35:11.736Z,48.10
2019-03-29T14:37:42.086Z,47.80
2019-03-29T14:40:12.940Z,48.30
2019-03-29T14:42:43.281Z,48.00
2019-03-29T14:45:15.143Z,47.90
2019-03-29T14:47:45.493Z,48.30
2019-03-29T14:50:16.149Z,48.60
2019-03-29T14:52:46.501Z,48.00
2019-03-29T14:55:16.855Z,48.30
2019-03-29T14:57:47.194Z,47.80
2019-03-29T15:00:22.152Z,48.00
2019-03-29T15:02:52.502Z,48.10
2019-03-29T15:05:22.847Z,48.10
2019-03-29T15:07:53.360Z,48.10
2019-03-29T15:10:28.227Z,48.60
2019-03-29T15:12:58.562Z,48.50
2019-03-29T15:15:28.918Z,49.10
2019-03-29T15:18:00.320Z,48.40
2019-03-29T15:20:30.675Z,48.50
2019-03-29T15:23:01.017Z,48.30
2019-03-29T15:25:31.365Z,48.30
2019-03-29T15:28:01.726Z,48.50
2019-03-29T15:30:32.070Z,48.30
2019-03-29T15:33:02.413Z,48.50
2019-03-29T15:35:32.754Z,48.50
2019-03-29T15:38:03.103Z,48.50
2019-03-29T15:40:33.518Z,48.50
2019-03-29T15:43:03.855Z,48.70
2019-03-29T15:45:35.270Z,48.80
2019-03-29T15:48:05.689Z,48.70
2019-03-29T15:50:36.042Z,48.60
2019-03-29T15:53:06.381Z,48.50
2019-03-29T15:55:37.804Z,48.80
2019-03-29T15:58:08.155Z,48.90
2019-03-29T16:00:38.509Z,48.80
2019-03-29T16:03:08.868Z,48.90
2019-03-29T16:05:39.203Z,48.90
2019-03-29T16:08:09.548Z,49.00
2019-03-29T16:10:41.326Z,48.70
2019-03-29T16:13:11.946Z,48.80
2019-03-29T16:15:42.291Z,49.00
2019-03-29T16:18:12.636Z,49.20
2019-03-29T16:20:42.979Z,49.20
2019-03-29T16:23:13.322Z,49.20
2019-03-29T16:25:43.667Z,48.90
2019-03-29T16:28:14.012Z,48.90
2019-03-29T16:30:45.985Z,48.80
2019-03-29T16:33:16.341Z,49.80
2019-03-29T16:35:46.690Z,49.10
2019-03-29T16:38:17.043Z,49.40
2019-03-29T16:40:47.403Z,49.40
2019-03-29T16:43:17.737Z,49.90
2019-03-29T16:45:48.542Z,50.20
2019-03-29T16:48:19.003Z,50.30
2019-03-29T16:50:49.369Z,50.10
2019-03-29T16:53:19.725Z,50.20
2019-03-29T16:55:50.073Z,50.20
2019-03-29T16:58:20.420Z,50.60
2019-03-29T17:00:50.776Z,50.70
2019-03-29T17:03:21.118Z,51.00
2019-03-29T17:05:51.472Z,51.60
2019-03-29T17:08:21.810Z,51.60
2019-03-29T17:10:52.151Z,51.90
2019-03-29T17:13:22.498Z,52.10
2019-03-29T17:16:01.621Z,52.30
2019-03-29T17:18:29.424Z,53.30
2019-03-29T17:20:57.052Z,53.90
2019-03-29T17:23:27.355Z,54.40
2019-03-29T17:25:57.705Z,54.70
2019-03-29T17:28:28.063Z,54.90
2019-03-29T17:31:00.128Z,55.50
2019-03-29T17:33:31.541Z,56.30
2019-03-29T17:36:01.888Z,56.30
2019-03-29T17:38:32.236Z,56.40
2019-03-29T17:41:02.585Z,56.70
2019-03-29T17:43:33.266Z,58.60
2019-03-29T17:46:15.494Z,58.30
2019-03-29T17:48:35.728Z,59.00
2019-03-29T17:51:07.697Z,58.60
2019-03-29T17:53:38.037Z,58.80
2019-03-29T17:56:08.388Z,59.80
2019-03-29T17:58:38.739Z,59.20
2019-03-29T18:01:09.082Z,59.70
2019-03-29T18:03:39.436Z,60.00
2019-03-29T18:06:09.963Z,60.70
2019-03-29T18:08:40.605Z,62.50
2019-03-29T18:11:11.027Z,62.30
2019-03-29T18:13:41.384Z,60.80
2019-03-29T18:16:11.739Z,62.90
2019-03-29T18:18:42.085Z,62.40
2019-03-29T18:21:12.438Z,63.40
2019-03-29T18:23:42.812Z,64.00
2019-03-29T18:26:13.148Z,64.30
2019-03-29T18:28:43.491Z,64.40
2019-03-29T18:31:13.906Z,65.10
2019-03-29T18:33:45.458Z,63.70
2019-03-29T18:36:15.946Z,65.00
2019-03-29T18:38:48.762Z,66.10
2019-03-29T18:41:19.126Z,66.40
2019-03-29T18:43:49.495Z,66.60
2019-03-29T18:46:19.812Z,66.70
2019-03-29T18:48:50.176Z,67.50
2019-03-29T18:51:20.525Z,67.10
2019-03-29T18:53:50.874Z,68.40
2019-03-29T18:56:21.223Z,68.20
2019-03-29T18:58:51.565Z,68.10
2019-03-29T19:01:21.915Z,68.00
2019-03-29T19:03:52.258Z,67.90
2019-03-29T19:06:22.619Z,68.30
2019-03-29T19:08:52.965Z,68.50
2019-03-29T19:11:23.310Z,68.70
2019-03-29T19:13:53.947Z,69.50
2019-03-29T19:16:24.298Z,69.80
2019-03-29T19:18:54.646Z,69.80
2019-03-29T19:21:25.761Z,70.20
2019-03-29T19:23:56.170Z,71.00
2019-03-29T19:26:26.511Z,71.40
2019-03-29T19:28:56.864Z,71.30
2019-03-29T19:31:27.213Z,71.30
2019-03-29T19:33:57.572Z,71.70
2019-03-29T19:36:27.927Z,71.60
2019-03-29T19:38:58.591Z,71.60
2019-03-29T19:41:28.935Z,71.80
2019-03-29T19:43:59.289Z,72.30
2019-03-29T19:46:29.650Z,72.30
2019-03-29T19:49:00.007Z,72.70
2019-03-29T19:51:30.348Z,72.70
2019-03-29T19:54:07.121Z,72.80
2019-03-29T19:56:32.742Z,73.00
2019-03-29T19:59:03.111Z,73.70
2019-03-29T20:01:33.465Z,73.70
2019-03-29T20:04:04.232Z,74.80
2019-03-29T20:06:34.580Z,74.60
2019-03-29T20:09:08.400Z,74.20
2019-03-29T20:11:39.088Z,74.60
2019-03-29T20:14:09.441Z,74.20
2019-03-29T20:16:39.784Z,74.30
2019-03-29T20:19:10.129Z,74.20
2019-03-29T20:21:40.504Z,74.10
2019-03-29T20:24:10.848Z,74.20
2019-03-29T20:26:41.199Z,74.30
2019-03-29T20:29:12.510Z,74.50
2019-03-29T20:31:42.867Z,75.00
2019-03-29T20:34:13.214Z,75.50
2019-03-29T20:36:43.635Z,76.10
2019-03-29T20:39:13.988Z,76.10
2019-03-29T20:41:44.343Z,76.90
2019-03-29T20:44:14.688Z,76.20
2019-03-29T20:46:45.027Z,77.20
2019-03-29T20:49:17.257Z,77.30
2019-03-29T20:51:50.656Z,77.60
2019-03-29T20:54:21.975Z,77.70
2019-03-29T20:56:52.549Z,77.60
2019-03-29T20:59:43.916Z,77.90
2019-03-29T21:02:14.259Z,78.10
2019-03-29T21:04:44.602Z,79.60
2019-03-29T21:07:14.949Z,80.10
2019-03-29T21:09:45.629Z,80.20
2019-03-29T21:12:15.979Z,80.10
2019-03-29T21:14:46.316Z,80.40
2019-03-29T21:17:17.952Z,81.40
2019-03-29T21:19:49.466Z,81.00
2019-03-29T21:22:19.803Z,81.00
2019-03-29T21:24:50.152Z,81.30
2019-03-29T21:27:20.489Z,81.20
2019-03-29T21:29:50.849Z,81.50
2019-03-29T21:32:21.188Z,81.60
2019-03-29T21:34:51.532Z,82.40
2019-03-29T21:37:21.879Z,82.30
2019-03-29T21:39:52.215Z,82.40
2019-03-29T21:42:22.558Z,82.80
2019-03-29T21:44:52.898Z,83.00
2019-03-29T21:47:23.245Z,82.90
2019-03-29T21:49:53.601Z,82.70
2019-03-29T21:52:23.929Z,83.50
2019-03-29T21:54:54.275Z,83.50
2019-03-29T21:57:24.615Z,83.80
2019-03-29T21:59:54.956Z,83.90
2019-03-29T22:02:25.311Z,84.20
2019-03-29T22:04:55.651Z,84.50
2019-03-29T22:07:25.993Z,84.90
2019-03-29T22:09:56.336Z,85.00
2019-03-29T22:12:26.686Z,84.70
2019-03-29T22:14:57.048Z,84.70
2019-03-29T22:17:27.384Z,84.90
2019-03-29T22:19:57.726Z,85.10
2019-03-29T22:22:28.066Z,85.20
2019-03-29T22:24:58.410Z,85.20
2019-03-29T22:27:28.751Z,85.30
2019-03-29T22:29:59.090Z,85.50
2019-03-29T22:32:29.433Z,85.70
2019-03-29T22:34:59.778Z,85.70
2019-03-29T22:37:30.121Z,86.10
2019-03-29T22:40:00.454Z,86.30
2019-03-29T22:42:30.792Z,86.50
2019-03-29T22:45:01.135Z,86.70
2019-03-29T22:47:31.477Z,86.50
2019-03-29T22:50:01.824Z,86.60
2019-03-29T22:52:32.171Z,86.80
2019-03-29T22:55:02.578Z,86.80
2019-03-29T22:57:32.926Z,86.80
2019-03-29T23:00:04.974Z,86.90
2019-03-29T23:02:38.600Z,87.00
2019-03-29T23:05:09.174Z,87.10
2019-03-29T23:07:39.518Z,87.30
2019-03-29T23:10:10.066Z,87.40
2019-03-29T23:12:40.406Z,87.70
2019-03-29T23:15:10.889Z,87.90
2019-03-29T23:17:41.228Z,88.00
2019-03-29T23:20:11.979Z,88.10
2019-03-29T23:22:42.323Z,88.20
2019-03-29T23:25:12.807Z,88.30
2019-03-29T23:27:43.149Z,88.30
2019-03-29T23:30:14.511Z,88.40
2019-03-29T23:32:45.791Z,88.40
2019-03-29T23:35:16.133Z,88.40
2019-03-29T23:37:46.478Z,88.70
2019-03-29T23:40:16.811Z,88.70
2019-03-29T23:42:47.226Z,88.60
2019-03-29T23:45:17.497Z,88.80
2019-03-29T23:47:47.850Z,89.00
2019-03-29T23:50:18.193Z,89.30
2019-03-29T23:52:48.539Z,89.50
2019-03-29T23:55:18.891Z,89.30
2019-03-29T23:57:49.230Z,89.10
